Time;durP1;ratioP1;P1;durP2;ratioP2;P2;SDS_P1;SDS_P2;PMS_P1;PMS_P2;Temp;Humidity;BMP_temperature;BMP_pressure;BME280_temperature;BME280_humidity;BME280_pressure;Samples;Min_cycle;Max_cycle;Signal;HPM_P1;HPM_P2
2023/05/25 00:01:25;;;;;;;6.20;3.20;;;15.20;34.20;;;;;;20821;6684;275057;-82
2023/05/25 00:04:01;;;;;;;6.62;3.20;;;15.30;34.10;;;;;;20707;6684;336010;-78
2023/05/25 00:06:39;;;;;;;5.17;3.00;;;15.40;34.10;;;;;;21052;6684;119497;-79
2023/05/25 00:09:11;;;;;;;4.77;2.77;;;15.10;34.40;;;;;;21049;6684;116593;-78
2023/05/25 00:11:46;;;;;;;4.28;3.05;;;14.70;34.90;;;;;;20824;6684;276379;-80
2023/05/25 00:14:21;;;;;;;5.27;2.97;;;14.70;35.30;;;;;;20671;6684;280220;-78
2023/05/25 00:16:57;;;;;;;2.80;2.60;;;15.00;34.90;;;;;;21049;6684;116788;-79
2023/05/25 00:19:33;;;;;;;4.13;2.70;;;14.80;35.20;;;;;;21032;6684;122847;-79
2023/05/25 00:22:09;;;;;;;5.53;2.80;;;14.60;35.80;;;;;;21044;6684;116630;-78
2023/05/25 00:24:44;;;;;;;4.03;3.05;;;14.30;36.00;;;;;;20614;6684;306739;-81
2023/05/25 00:27:19;;;;;;;7.13;2.70;;;14.50;36.40;;;;;;21025;6684;121520;-79
2023/05/25 00:30:00;;;;;;;4.77;2.70;;;14.50;36.50;;;;;;21051;6684;118183;-80
2023/05/25 00:32:30;;;;;;;4.37;2.97;;;14.30;36.70;;;;;;21055;6684;117781;-78
2023/05/25 00:35:06;;;;;;;5.22;3.20;;;14.00;36.80;;;;;;20618;6755;307388;-78
2023/05/25 00:37:43;;;;;;;5.13;2.80;;;14.30;37.00;;;;;;20994;6699;116643;-78
2023/05/25 00:40:17;;;;;;;5.78;3.30;;;14.30;37.30;;;;;;20789;6699;295867;-82
2023/05/25 00:42:53;;;;;;;6.17;3.00;;;14.40;36.70;;;;;;20986;6699;118220;-78
2023/05/25 00:45:30;;;;;;;4.60;2.70;;;14.40;36.70;;;;;;20935;6714;117299;-78
2023/05/25 00:48:05;;;;;;;7.20;3.50;;;14.10;37.20;;;;;;20801;6699;279295;-78
2023/05/25 00:50:41;;;;;;;5.23;2.90;;;14.20;36.90;;;;;;20984;6754;118207;-78
2023/05/25 00:53:16;;;;;;;6.60;2.90;;;14.20;37.10;;;;;;20945;6699;120922;-80
2023/05/25 00:55:52;;;;;;;8.63;3.10;;;13.90;37.30;;;;;;20986;6698;116716;-80
2023/05/25 00:58:28;;;;;;;3.67;2.80;;;13.70;37.80;;;;;;20952;6714;116938;-78
2023/05/25 01:01:05;;;;;;;6.60;3.10;;;13.50;38.20;;;;;;20971;6709;117924;-80
2023/05/25 01:03:40;;;;;;;5.22;3.10;;;13.40;38.50;;;;;;20676;6706;336272;-79
2023/05/25 01:06:16;;;;;;;3.93;2.63;;;13.70;38.70;;;;;;21019;6691;118449;-81
2023/05/25 01:08:51;;;;;;;5.68;3.55;;;13.60;38.40;;;;;;20750;6714;307307;-79
2023/05/25 01:11:27;;;;;;;4.33;3.50;;;14.20;38.20;;;;;;20718;6714;308132;-78
2023/05/25 01:14:03;;;;;;;6.50;3.70;;;14.10;38.10;;;;;;20652;6699;336960;-78
2023/05/25 01:16:38;;;;;;;6.67;3.13;;;14.40;37.80;;;;;;21000;6699;119053;-79
2023/05/25 01:19:14;;;;;;;6.20;3.33;;;14.10;37.70;;;;;;20835;6684;279645;-78
2023/05/25 01:21:59;;;;;;;5.50;3.00;;;14.10;38.20;;;;;;21057;6684;117088;-78
2023/05/25 01:24:35;;;;;;;6.03;3.23;;;13.80;38.30;;;;;;20658;6699;276999;-81
2023/05/25 01:27:24;;;;;;;11.60;4.10;;;13.90;39.00;;;;;;20968;6714;116863;-78
2023/05/25 01:29:59;;;;;;;5.47;3.45;;;13.80;38.90;;;;;;20780;6699;275573;-82
2023/05/25 01:32:36;;;;;;;8.20;3.60;;;13.80;39.00;;;;;;20807;6699;280271;-81
2023/05/25 01:35:11;;;;;;;8.48;3.80;;;14.00;38.70;;;;;;20790;6699;305736;-78
2023/05/25 01:37:46;;;;;;;8.32;3.80;;;14.20;38.50;;;;;;20763;6702;305535;-79
2023/05/25 01:40:22;;;;;;;5.80;3.33;;;14.30;38.30;;;;;;20975;6702;122559;-80
2023/05/25 01:42:57;;;;;;;10.05;3.80;;;13.90;38.40;;;;;;20706;6714;308415;-78
2023/05/25 01:45:33;;;;;;;5.53;3.83;;;13.90;39.00;;;;;;20806;6688;274831;-80
2023/05/25 01:48:12;;;;;;;6.62;3.65;;;14.00;38.90;;;;;;20735;6714;340080;-79
2023/05/25 01:50:51;;;;;;;5.73;3.23;;;14.20;38.60;;;;;;20950;6714;119799;-80
2023/05/25 01:53:26;;;;;;;4.17;3.10;;;13.90;38.80;;;;;;20892;6699;117587;-78
2023/05/25 01:56:01;;;;;;;7.12;3.75;;;13.50;39.40;;;;;;20817;6740;304143;-80
2023/05/25 01:58:44;;;;;;;9.63;3.97;;;13.50;40.00;;;;;;21019;6684;119325;-79
2023/05/25 02:01:19;;;;;;;4.77;3.10;;;13.40;39.80;;;;;;21022;6684;144119;-78
2023/05/25 02:03:55;;;;;;;8.23;3.27;;;13.10;40.20;;;;;;20938;6684;118577;-80
2023/05/25 02:06:31;;;;;;;6.07;3.00;;;12.80;40.50;;;;;;20988;6699;117975;-80
2023/05/25 02:09:07;;;;;;;6.77;3.33;;;12.60;40.70;;;;;;21002;6699;116958;-78
2023/05/25 02:11:44;;;;;;;7.20;4.22;;;12.50;41.10;;;;;;20770;6699;304920;-80
2023/05/25 02:14:21;;;;;;;5.73;3.57;;;12.70;41.50;;;;;;20864;6691;119549;-77
2023/05/25 02:17:00;;;;;;;4.70;3.17;;;12.80;41.30;;;;;;20923;6699;118079;-79
2023/05/25 02:19:32;;;;;;;7.07;3.43;;;12.50;41.30;;;;;;21013;6699;117188;-78
2023/05/25 02:22:08;;;;;;;6.82;3.90;;;12.40;41.70;;;;;;20771;6699;304493;-80
2023/05/25 02:24:45;;;;;;;6.40;3.70;;;12.70;41.60;;;;;;20842;6684;117191;-78
2023/05/25 02:27:20;;;;;;;6.73;3.37;;;12.70;41.60;;;;;;21043;6684;122203;-78
2023/05/25 02:29:55;;;;;;;6.23;3.40;;;12.50;41.70;;;;;;20990;6699;118407;-79
2023/05/25 02:32:32;;;;;;;4.50;4.00;;;12.30;42.00;;;;;;20780;6699;304170;-78
2023/05/25 02:35:07;;;;;;;7.63;4.60;;;12.60;42.50;;;;;;20553;6770;279633;-78
2023/05/25 02:37:43;;;;;;;6.27;4.03;;;12.90;41.60;;;;;;20975;6699;118558;-79
2023/05/25 02:40:19;;;;;;;7.53;3.70;;;12.90;41.60;;;;;;20997;6699;117968;-81
2023/05/25 02:42:55;;;;;;;6.75;4.12;;;12.70;41.90;;;;;;20770;6699;277576;-79
2023/05/25 02:45:31;;;;;;;7.07;4.43;;;12.80;42.10;;;;;;20734;6714;278350;-78
2023/05/25 02:48:07;;;;;;;5.60;3.77;;;13.10;41.70;;;;;;20954;6717;120883;-81
2023/05/25 02:50:43;;;;;;;7.33;3.70;;;13.00;41.50;;;;;;20986;6707;117268;-78
2023/05/25 02:53:19;;;;;;;7.87;4.12;;;12.70;41.90;;;;;;20702;6699;336852;-78
2023/05/25 02:55:55;;;;;;;7.07;4.50;;;12.80;42.30;;;;;;20788;6699;275998;-78
2023/05/25 02:58:30;;;;;;;9.10;4.10;;;13.00;41.90;;;;;;20780;6699;319018;-79
2023/05/25 03:01:11;;;;;;;6.77;4.13;;;13.30;41.60;;;;;;20959;6714;118072;-81
2023/05/25 03:03:41;;;;;;;6.50;4.30;;;13.10;41.50;;;;;;20890;6699;116908;-78
2023/05/25 03:06:16;;;;;;;8.20;4.10;;;12.70;41.90;;;;;;21011;6699;118389;-78
2023/05/25 03:08:53;;;;;;;6.23;3.83;;;12.40;42.30;;;;;;20949;6714;117339;-81
2023/05/25 03:11:29;;;;;;;6.95;4.10;;;12.20;42.60;;;;;;20769;6694;303975;-79
2023/05/25 03:14:04;;;;;;;8.73;4.62;;;12.50;43.30;;;;;;20626;6693;287161;-80
2023/05/25 03:16:41;;;;;;;6.20;4.23;;;13.20;42.20;;;;;;20783;6694;309359;-81
2023/05/25 03:19:19;;;;;;;6.75;4.37;;;13.20;42.10;;;;;;20736;6709;318835;-78
2023/05/25 03:21:52;;;;;;;6.77;4.50;;;13.40;41.80;;;;;;20742;6706;280679;-79
2023/05/25 03:24:33;;;;;;;8.37;4.50;;;13.70;41.70;;;;;;20619;6699;292849;-80
2023/05/25 03:27:05;;;;;;;6.55;4.93;;;13.70;41.70;;;;;;20723;6714;277075;-78
2023/05/25 03:29:39;;;;;;;6.27;3.90;;;13.80;41.00;;;;;;20890;6714;117658;-77
2023/05/25 03:32:15;;;;;;;5.27;3.93;;;13.50;41.30;;;;;;20991;6699;118412;-81
2023/05/25 03:34:51;;;;;;;7.03;4.90;;;13.10;41.80;;;;;;20551;6699;278024;-81
2023/05/25 03:37:26;;;;;;;6.30;4.13;;;13.10;42.40;;;;;;20971;6699;116879;-78
2023/05/25 03:40:02;;;;;;;7.75;4.93;;;13.00;42.40;;;;;;20765;6714;276017;-77
2023/05/25 03:42:37;;;;;;;8.93;4.53;;;13.10;42.40;;;;;;20873;6729;119409;-77
2023/05/25 03:45:13;;;;;;;7.87;4.62;;;13.00;42.30;;;;;;20747;6701;278135;-76
2023/05/25 03:47:49;;;;;;;6.57;4.57;;;13.10;42.40;;;;;;20760;6694;277089;-79
2023/05/25 03:50:24;;;;;;;7.95;4.72;;;13.40;42.50;;;;;;20793;6694;304241;-76
2023/05/25 03:53:01;;;;;;;8.57;4.70;;;13.70;42.30;;;;;;20628;6736;281646;-76
2023/05/25 03:55:37;;;;;;;6.43;4.47;;;13.90;41.80;;;;;;20765;6694;276022;-76
2023/05/25 03:58:12;;;;;;;9.13;4.83;;;14.00;41.50;;;;;;20844;6679;310680;-76
2023/05/25 04:00:49;;;;;;;6.47;4.87;;;14.10;41.30;;;;;;20833;6679;308986;-74
2023/05/25 04:03:23;;;;;;;9.47;4.43;;;14.20;41.20;;;;;;20967;6679;117532;-77
2023/05/25 04:05:59;;;;;;;7.07;4.47;;;13.90;41.50;;;;;;20823;6679;279967;-77
2023/05/25 04:08:34;;;;;;;7.70;4.60;;;13.80;41.90;;;;;;21012;6694;116745;-76
2023/05/25 04:11:10;;;;;;;9.45;5.20;;;13.60;42.00;;;;;;20834;6679;305360;-75
2023/05/25 04:13:55;;;;;;;6.43;4.47;;;13.80;41.70;;;;;;20724;6679;306025;-75
2023/05/25 04:16:25;;;;;;;9.70;4.73;;;13.80;41.60;;;;;;20732;6707;328982;-78
2023/05/25 04:19:02;;;;;;;8.23;4.50;;;13.70;41.40;;;;;;20896;6721;121050;-75
2023/05/25 04:21:37;;;;;;;6.53;5.00;;;13.60;41.30;;;;;;20743;6697;277015;-76
2023/05/25 04:24:13;;;;;;;9.57;4.80;;;13.60;41.90;;;;;;20824;6706;117549;-76
2023/05/25 04:26:49;;;;;;;9.43;4.70;;;13.00;42.60;;;;;;20976;6706;116524;-81
2023/05/25 04:29:28;;;;;;;6.50;4.90;;;13.00;42.50;;;;;;20698;6721;310340;-76
2023/05/25 04:32:01;;;;;;;10.10;4.80;;;13.20;42.90;;;;;;20917;6725;116891;-75
2023/05/25 04:34:36;;;;;;;7.40;4.27;;;13.10;42.70;;;;;;20781;6723;117397;-77
2023/05/25 04:37:22;;;;;;;10.23;4.30;;;12.90;43.00;;;;;;20980;6699;119755;-81
2023/05/25 04:39:49;;;;;;;6.73;4.77;;;12.70;43.20;;;;;;20941;6724;121035;-79
2023/05/25 04:42:25;;;;;;;8.73;4.83;;;12.50;43.40;;;;;;20971;6709;120672;-75
2023/05/25 04:45:00;;;;;;;6.30;4.83;;;12.40;43.80;;;;;;20756;6782;122614;-77
2023/05/25 04:47:36;;;;;;;6.30;4.40;;;12.40;44.00;;;;;;20863;6721;117395;-77
2023/05/25 04:50:11;;;;;;;5.37;4.30;;;12.30;44.10;;;;;;20968;6707;116760;-75
2023/05/25 04:52:47;;;;;;;7.28;5.50;;;12.30;44.30;;;;;;20783;6697;276208;-77
2023/05/25 04:55:23;;;;;;;7.33;5.53;;;13.20;43.90;;;;;;20804;6686;280484;-74
2023/05/25 04:57:59;;;;;;;7.12;5.50;;;13.20;44.10;;;;;;20723;6714;339739;-73
2023/05/25 05:00:35;;;;;;;7.07;4.47;;;13.60;43.60;;;;;;20867;6736;116934;-82
2023/05/25 05:03:10;;;;;;;8.73;5.80;;;13.50;43.40;;;;;;20647;6739;303095;-72
2023/05/25 05:05:45;;;;;;;9.27;5.77;;;13.70;43.40;;;;;;20697;6722;305241;-72
2023/05/25 05:08:21;;;;;;;6.70;5.57;;;14.00;43.50;;;;;;20669;6732;323397;-75
2023/05/25 05:10:57;;;;;;;10.98;5.70;;;14.50;42.50;;;;;;20717;6718;281051;-78
2023/05/25 05:13:33;;;;;;;9.90;5.17;;;14.50;42.50;;;;;;20874;6723;117484;-76
2023/05/25 05:16:09;;;;;;;9.30;5.37;;;14.40;42.60;;;;;;20919;6723;116803;-76
2023/05/25 05:18:44;;;;;;;5.60;4.83;;;14.10;43.20;;;;;;20884;6723;117428;-74
2023/05/25 05:21:21;;;;;;;13.23;5.60;;;13.90;43.30;;;;;;20898;6732;123272;-77
2023/05/25 05:23:56;;;;;;;8.97;5.53;;;13.80;43.50;;;;;;20830;6714;121368;-74
2023/05/25 05:26:35;;;;;;;9.37;5.20;;;13.70;43.50;;;;;;20953;6712;121248;-74
2023/05/25 05:29:10;;;;;;;8.10;4.93;;;13.70;43.80;;;;;;20875;6723;117352;-75
2023/05/25 05:31:46;;;;;;;6.57;5.50;;;13.70;43.70;;;;;;20899;6722;120829;-75
2023/05/25 05:34:21;;;;;;;6.73;5.10;;;13.80;43.70;;;;;;20776;6727;117639;-75
2023/05/25 05:36:59;;;;;;;8.40;5.30;;;13.80;44.40;;;;;;20905;6719;116635;-77
2023/05/25 05:39:43;;;;;;;10.20;4.77;;;13.90;44.00;;;;;;20880;6727;117822;-74
2023/05/25 05:42:10;;;;;;;9.15;5.70;;;14.00;43.90;;;;;;20799;6697;304634;-76
2023/05/25 05:44:46;;;;;;;7.80;5.93;;;14.70;43.10;;;;;;20753;6715;117812;-73
2023/05/25 05:47:22;;;;;;;12.53;6.93;;;14.70;43.10;;;;;;20948;6712;116859;-74
2023/05/25 05:49:57;;;;;;;7.83;5.67;;;14.60;42.80;;;;;;20904;6730;117746;-74
2023/05/25 05:52:33;;;;;;;9.52;5.97;;;14.50;43.00;;;;;;20747;6725;316874;-76
2023/05/25 05:55:08;;;;;;;5.47;4.93;;;14.80;43.30;;;;;;20921;6712;116922;-74
2023/05/25 05:57:44;;;;;;;8.30;5.90;;;14.90;43.10;;;;;;20747;6707;309866;-72
2023/05/25 06:00:20;;;;;;;6.33;5.17;;;15.30;42.40;;;;;;20946;6716;116899;-75
2023/05/25 06:02:57;;;;;;;6.43;4.77;;;15.30;42.50;;;;;;20970;6697;116747;-75
2023/05/25 06:05:32;;;;;;;8.07;4.60;;;15.30;42.50;;;;;;20984;6697;120625;-75
2023/05/25 06:08:09;;;;;;;9.60;6.22;;;15.30;42.80;;;;;;20785;6712;341042;-75
2023/05/25 06:10:44;;;;;;;9.83;5.50;;;15.90;41.90;;;;;;20948;6716;116851;-74
2023/05/25 06:13:20;;;;;;;8.10;5.80;;;15.90;41.80;;;;;;20618;6727;308185;-75
2023/05/25 06:15:57;;;;;;;7.37;4.80;;;16.30;41.10;;;;;;21043;6697;121306;-74
2023/05/25 06:18:32;;;;;;;9.70;5.90;;;16.40;41.30;;;;;;20782;6716;302589;-77
2023/05/25 06:21:08;;;;;;;7.70;5.23;;;16.80;40.80;;;;;;20946;6714;117379;-74
2023/05/25 06:23:44;;;;;;;10.43;6.97;;;17.10;41.30;;;;;;20651;6709;277612;-75
2023/05/25 06:26:20;;;;;;;8.88;6.35;;;17.80;40.20;;;;;;20727;6720;326724;-75
2023/05/25 06:28:56;;;;;;;10.70;7.00;;;18.80;39.20;;;;;;20707;6725;306418;-75
2023/05/25 06:31:31;;;;;;;10.98;6.80;;;19.80;37.80;;;;;;20692;6729;305809;-74
2023/05/25 06:34:07;;;;;;;10.90;6.70;;;21.30;35.40;;;;;;20603;6729;294372;-74
2023/05/25 06:36:43;;;;;;;9.07;5.50;;;21.20;35.20;;;;;;20984;6705;116852;-75
2023/05/25 06:39:19;;;;;;;9.20;6.63;;;21.20;35.40;;;;;;20758;6712;276220;-76
2023/05/25 06:41:54;;;;;;;9.40;6.07;;;21.20;34.80;;;;;;20789;6699;308645;-75
2023/05/25 06:44:30;;;;;;;8.23;5.70;;;21.20;34.70;;;;;;20910;6683;118263;-73
2023/05/25 06:47:05;;;;;;;8.63;5.43;;;20.80;35.10;;;;;;20897;6731;117310;-73
2023/05/25 06:49:41;;;;;;;6.47;5.37;;;20.30;35.70;;;;;;20949;6713;120717;-73
2023/05/25 06:52:17;;;;;;;7.83;4.63;;;19.90;36.30;;;;;;21008;6697;116565;-72
2023/05/25 06:54:52;;;;;;;5.93;5.33;;;19.40;36.60;;;;;;20779;6727;117254;-73
2023/05/25 06:57:28;;;;;;;7.73;4.97;;;18.90;37.00;;;;;;20927;6712;116950;-73
2023/05/25 07:00:07;;;;;;;7.60;5.53;;;18.50;37.40;;;;;;20990;6697;117040;-74
2023/05/25 07:02:39;;;;;;;5.87;5.13;;;18.30;37.90;;;;;;20728;6716;276207;-75
2023/05/25 07:05:15;;;;;;;7.93;5.90;;;18.40;38.90;;;;;;20757;6711;279429;-75
2023/05/25 07:07:51;;;;;;;8.23;5.90;;;18.70;38.70;;;;;;20679;6724;281095;-74
2023/05/25 07:10:26;;;;;;;8.13;5.37;;;18.90;38.30;;;;;;20924;6726;116765;-74
2023/05/25 07:13:02;;;;;;;11.70;6.17;;;18.70;38.00;;;;;;20881;6726;117881;-74
2023/05/25 07:15:38;;;;;;;9.93;6.33;;;18.40;38.90;;;;;;20704;6721;282800;-74
2023/05/25 07:18:14;;;;;;;9.37;5.93;;;18.40;38.90;;;;;;20962;6709;117374;-74
2023/05/25 07:20:50;;;;;;;8.77;6.03;;;18.20;38.80;;;;;;20955;6711;117317;-74
2023/05/25 07:23:25;;;;;;;8.93;6.07;;;18.00;39.20;;;;;;20876;6708;120598;-75
2023/05/25 07:26:01;;;;;;;5.93;5.10;;;17.70;39.60;;;;;;20979;6706;117404;-76
2023/05/25 07:28:37;;;;;;;11.23;5.77;;;17.70;39.90;;;;;;20935;6721;117555;-76
2023/05/25 07:31:12;;;;;;;6.27;5.30;;;17.70;40.10;;;;;;20969;6707;117030;-74
2023/05/25 07:33:52;;;;;;;7.90;6.03;;;17.80;40.40;;;;;;20823;6715;117146;-76
2023/05/25 07:36:30;;;;;;;6.10;4.87;;;17.90;40.40;;;;;;20745;6714;275653;-76
2023/05/25 07:39:00;;;;;;;10.97;5.90;;;18.40;40.30;;;;;;21005;6697;116761;-74
2023/05/25 07:41:36;;;;;;;6.53;5.27;;;18.70;40.00;;;;;;20949;6712;117337;-75
2023/05/25 07:44:12;;;;;;;9.93;6.55;;;18.90;39.60;;;;;;20645;6722;278866;-75
2023/05/25 07:46:47;;;;;;;7.00;5.67;;;19.20;38.80;;;;;;20780;6697;284659;-74
2023/05/25 07:49:23;;;;;;;8.47;5.50;;;19.70;38.50;;;;;;20787;6697;276557;-75
2023/05/25 07:51:58;;;;;;;9.40;6.40;;;20.20;38.10;;;;;;20758;6707;278965;-75
2023/05/25 07:54:38;;;;;;;9.73;6.67;;;20.40;37.30;;;;;;20586;6707;277808;-76
2023/05/25 07:57:10;;;;;;;9.07;6.12;;;20.50;37.20;;;;;;20768;6707;309931;-75
2023/05/25 07:59:45;;;;;;;6.87;5.50;;;20.60;37.20;;;;;;20964;6707;124237;-76
2023/05/25 08:02:21;;;;;;;5.43;4.93;;;20.40;37.60;;;;;;21031;6691;117145;-76
2023/05/25 08:04:56;;;;;;;13.57;6.40;;;20.30;38.20;;;;;;20792;6697;117684;-79
2023/05/25 08:07:32;;;;;;;9.82;7.07;;;20.30;38.40;;;;;;20775;6697;298650;-76
2023/05/25 08:10:07;;;;;;;9.30;6.57;;;20.50;38.60;;;;;;20772;6697;334118;-76
2023/05/25 08:12:43;;;;;;;7.20;6.50;;;20.90;38.70;;;;;;20985;6697;116874;-79
2023/05/25 08:15:19;;;;;;;7.47;6.67;;;21.10;38.00;;;;;;21010;6697;121084;-78
2023/05/25 08:17:55;;;;;;;13.13;6.77;;;20.80;38.00;;;;;;20963;6712;116996;-77
2023/05/25 08:20:31;;;;;;;9.63;7.07;;;20.60;38.30;;;;;;20748;6712;276682;-78
2023/05/25 08:23:06;;;;;;;10.03;6.53;;;20.70;37.90;;;;;;20926;6712;117192;-78
2023/05/25 08:25:41;;;;;;;9.47;6.97;;;20.70;38.10;;;;;;20770;6697;309344;-76
2023/05/25 08:28:18;;;;;;;8.20;7.20;;;20.70;38.20;;;;;;20739;6716;278478;-79
2023/05/25 08:30:57;;;;;;;9.53;6.73;;;20.90;37.90;;;;;;20943;6716;117150;-76
2023/05/25 08:33:33;;;;;;;9.20;7.50;;;20.80;37.80;;;;;;20662;6712;277637;-76
2023/05/25 08:36:08;;;;;;;11.37;7.23;;;20.80;38.50;;;;;;20954;6712;117332;-78
2023/05/25 08:38:43;;;;;;;10.10;6.80;;;20.60;38.30;;;;;;20961;6712;117497;-76
2023/05/25 08:41:23;;;;;;;9.40;8.00;;;20.20;39.30;;;;;;20665;6724;300862;-76
2023/05/25 08:44:04;;;;;;;8.33;7.50;;;20.20;39.30;;;;;;20681;6699;307455;-80
2023/05/25 08:46:34;;;;;;;8.93;7.87;;;20.50;38.70;;;;;;21025;6692;116776;-75
2023/05/25 08:49:09;;;;;;;8.93;7.63;;;20.50;38.70;;;;;;20812;6692;304614;-77
2023/05/25 08:51:46;;;;;;;10.38;8.00;;;20.40;39.20;;;;;;20825;6677;333302;-79
2023/05/25 08:54:25;;;;;;;9.70;7.33;;;20.70;38.80;;;;;;20673;6692;282850;-77
2023/05/25 08:57:10;;;;;;;10.25;7.75;;;20.80;38.70;;;;;;20805;6692;334910;-80
2023/05/25 08:59:52;;;;;;;9.87;7.70;;;21.00;38.80;;;;;;20957;6708;124874;-80
2023/05/25 09:02:37;;;;;;;12.50;7.60;;;20.90;38.70;;;;;;21060;6692;117083;-80
2023/05/25 09:05:13;;;;;;;10.20;7.50;;;20.70;39.10;;;;;;20986;6706;119741;-77
2023/05/25 09:07:50;;;;;;;9.80;8.00;;;20.60;39.20;;;;;;20700;6723;276786;-79
2023/05/25 09:10:27;;;;;;;9.48;8.50;;;20.70;39.00;;;;;;20713;6721;299554;-77
2023/05/25 09:13:00;;;;;;;11.70;8.20;;;21.00;39.10;;;;;;20737;6706;277323;-77
2023/05/25 09:15:35;;;;;;;9.00;7.97;;;21.40;38.90;;;;;;20737;6708;335038;-79
2023/05/25 09:18:12;;;;;;;13.17;7.63;;;21.70;38.60;;;;;;20981;6706;121767;-76
2023/05/25 09:20:47;;;;;;;9.17;7.60;;;21.80;38.60;;;;;;20955;6706;117099;-80
2023/05/25 09:23:23;;;;;;;9.20;7.63;;;21.70;39.00;;;;;;20869;6706;118256;-77
2023/05/25 09:25:58;;;;;;;7.87;7.10;;;21.80;39.00;;;;;;20986;6706;117405;-77
2023/05/25 09:28:34;;;;;;;12.20;8.57;;;21.90;39.40;;;;;;20718;6721;311603;-76
2023/05/25 09:31:10;;;;;;;10.93;8.50;;;22.40;38.80;;;;;;20758;6706;310102;-76
2023/05/25 09:33:45;;;;;;;10.13;7.43;;;22.90;36.90;;;;;;20869;6709;119655;-76
2023/05/25 09:36:21;;;;;;;8.63;7.83;;;22.90;37.10;;;;;;21018;6694;116949;-75
2023/05/25 09:38:56;;;;;;;10.13;7.50;;;22.90;37.30;;;;;;20980;6709;123035;-76
2023/05/25 09:41:32;;;;;;;9.07;7.57;;;22.60;37.20;;;;;;20781;6700;301571;-76
2023/05/25 09:44:07;;;;;;;10.65;7.87;;;22.70;37.70;;;;;;20600;6711;295541;-75
2023/05/25 09:46:43;;;;;;;9.33;8.10;;;23.10;37.40;;;;;;20697;6731;282629;-75
2023/05/25 09:49:19;;;;;;;8.77;7.87;;;23.70;37.10;;;;;;20732;6715;306438;-76
2023/05/25 09:51:55;;;;;;;8.90;7.50;;;23.70;36.40;;;;;;20999;6700;116881;-75
2023/05/25 09:54:30;;;;;;;7.63;6.93;;;23.60;36.40;;;;;;20835;6715;117220;-76
2023/05/25 09:57:06;;;;;;;9.47;7.70;;;23.40;36.90;;;;;;20773;6703;281259;-75
2023/05/25 09:59:42;;;;;;;11.07;9.20;;;23.50;36.70;;;;;;20761;6718;304928;-75
2023/05/25 10:02:20;;;;;;;9.50;7.93;;;23.70;36.50;;;;;;20777;6703;275244;-76
2023/05/25 10:04:53;;;;;;;9.23;8.20;;;23.90;36.20;;;;;;20650;6703;281164;-76
2023/05/25 10:07:28;;;;;;;9.18;8.02;;;24.20;36.10;;;;;;20807;6688;305694;-78
2023/05/25 10:10:04;;;;;;;8.70;7.80;;;24.30;35.60;;;;;;20773;6700;298985;-77
2023/05/25 10:12:40;;;;;;;9.47;7.30;;;24.40;35.00;;;;;;20940;6714;116963;-78
2023/05/25 10:15:15;;;;;;;9.40;8.13;;;24.20;35.30;;;;;;20769;6707;289060;-77
2023/05/25 10:17:51;;;;;;;10.47;7.10;;;24.10;35.20;;;;;;20963;6706;116728;-75
2023/05/25 10:20:26;;;;;;;7.83;6.63;;;23.80;35.90;;;;;;21005;6721;116710;-77
2023/05/25 10:23:09;;;;;;;9.40;8.30;;;23.80;36.70;;;;;;20716;6721;278530;-75
2023/05/25 10:25:48;;;;;;;7.43;6.83;;;23.80;36.40;;;;;;20994;6697;119665;-76
2023/05/25 10:28:27;;;;;;;8.30;7.50;;;23.80;36.40;;;;;;20655;6736;304811;-77
2023/05/25 10:31:03;;;;;;;11.73;8.10;;;24.00;36.30;;;;;;20944;6706;117207;-75
2023/05/25 10:33:39;;;;;;;8.87;8.00;;;24.00;36.30;;;;;;20677;6709;429151;-74
2023/05/25 10:36:16;;;;;;;7.90;6.63;;;24.20;35.70;;;;;;21076;6679;116713;-77
2023/05/25 10:38:50;;;;;;;8.43;6.60;;;24.20;36.00;;;;;;21021;6694;116656;-81
2023/05/25 10:41:25;;;;;;;8.33;7.23;;;24.10;36.50;;;;;;20778;6694;310225;-74
2023/05/25 10:44:01;;;;;;;7.37;6.77;;;24.40;36.30;;;;;;20902;6694;123079;-76
2023/05/25 10:46:39;;;;;;;7.93;7.20;;;24.70;35.60;;;;;;20802;6694;276050;-79
2023/05/25 10:49:16;;;;;;;10.68;7.05;;;24.70;35.60;;;;;;20814;6694;333600;-77
2023/05/25 10:51:51;;;;;;;11.47;7.57;;;25.10;35.60;;;;;;20818;6694;309579;-76
2023/05/25 10:54:30;;;;;;;12.50;6.83;;;25.30;35.10;;;;;;20891;6679;117380;-76
2023/05/25 10:57:11;;;;;;;8.48;7.30;;;25.30;35.20;;;;;;20840;6679;305573;-76
2023/05/25 10:59:51;;;;;;;8.17;7.47;;;25.30;34.70;;;;;;21048;6679;122046;-75
2023/05/25 11:02:27;;;;;;;6.80;6.20;;;24.80;35.60;;;;;;21060;6679;116724;-79
2023/05/25 11:05:29;;;;;;;8.10;7.30;;;24.70;35.30;;;;;;20660;6736;311027;-75
2023/05/25 11:08:08;;;;;;;7.80;7.03;;;24.70;36.30;;;;;;20833;6677;305630;-76
2023/05/25 11:10:46;;;;;;;6.83;5.80;;;25.00;36.10;;;;;;21030;6692;117206;-78
2023/05/25 11:13:39;;;;;;;7.57;6.87;;;24.90;35.90;;;;;;20951;6692;117299;-76
2023/05/25 11:16:21;;;;;;;7.65;6.85;;;24.60;36.00;;;;;;20852;6679;304465;-75
2023/05/25 11:18:58;;;;;;;7.27;6.53;;;24.50;35.80;;;;;;21055;6679;116835;-74
2023/05/25 11:21:44;;;;;;;7.17;6.47;;;24.50;35.80;;;;;;20820;6679;309865;-74
2023/05/25 11:24:19;;;;;;;7.37;6.67;;;24.50;36.00;;;;;;20694;6679;277425;-76
2023/05/25 11:26:55;;;;;;;7.53;6.10;;;24.80;36.00;;;;;;21065;6679;116816;-79
2023/05/25 11:29:30;;;;;;;9.77;6.77;;;24.70;36.10;;;;;;21042;6679;117841;-80
2023/05/25 11:32:13;;;;;;;8.27;6.57;;;24.50;36.40;;;;;;21063;6679;117103;-76
2023/05/25 11:34:52;;;;;;;6.67;5.97;;;24.30;36.60;;;;;;20876;6679;117015;-80
2023/05/25 11:37:30;;;;;;;8.70;6.37;;;24.10;36.80;;;;;;20836;6679;296792;-80
2023/05/25 11:40:03;;;;;;;7.35;6.60;;;24.30;36.90;;;;;;20820;6682;333799;-82
2023/05/25 11:42:39;;;;;;;8.10;6.57;;;24.70;36.50;;;;;;20844;6694;306761;-79
2023/05/25 11:45:14;;;;;;;8.57;6.40;;;25.00;35.60;;;;;;21018;6694;116721;-79
2023/05/25 11:47:51;;;;;;;6.83;6.23;;;25.00;36.40;;;;;;20789;6694;298486;-80
2023/05/25 11:50:27;;;;;;;7.10;6.40;;;25.00;35.70;;;;;;20849;6694;308957;-81
2023/05/25 11:53:02;;;;;;;13.40;6.70;;;25.10;35.90;;;;;;20968;6694;116701;-79
2023/05/25 11:55:39;;;;;;;8.93;6.03;;;25.00;35.70;;;;;;21028;6682;122585;-82
2023/05/25 11:58:19;;;;;;;7.40;6.70;;;24.80;36.10;;;;;;20816;6688;308553;-76
2023/05/25 12:00:48;;;;;;;7.23;6.50;;;25.00;36.40;;;;;;20802;6694;275271;-75
2023/05/25 12:03:28;;;;;;;8.73;6.45;;;25.30;36.00;;;;;;20743;6709;277225;-77
2023/05/25 12:06:04;;;;;;;6.77;6.17;;;25.50;35.50;;;;;;21022;6691;118811;-82
2023/05/25 12:08:40;;;;;;;6.67;5.97;;;25.40;35.40;;;;;;20945;6709;118975;-77
2023/05/25 12:11:16;;;;;;;8.43;6.93;;;25.20;35.70;;;;;;20845;6679;276281;-77
2023/05/25 12:13:52;;;;;;;7.47;6.63;;;25.20;35.60;;;;;;20634;6763;279578;-78
2023/05/25 12:16:27;;;;;;;9.20;6.70;;;25.40;35.40;;;;;;21054;6679;116893;-79
2023/05/25 12:19:03;;;;;;;8.77;7.07;;;25.30;35.50;;;;;;20796;6694;294362;-81
2023/05/25 12:21:38;;;;;;;7.90;6.73;;;25.30;35.00;;;;;;20779;6694;309101;-78
2023/05/25 12:24:15;;;;;;;9.25;7.43;;;25.60;35.10;;;;;;20677;6694;277899;-77
2023/05/25 12:27:04;;;;;;;8.47;6.83;;;25.60;35.10;;;;;;21013;6694;116318;-80
2023/05/25 12:29:28;;;;;;;7.83;6.83;;;25.40;35.30;;;;;;20754;6750;305184;-82
2023/05/25 12:32:04;;;;;;;7.97;6.50;;;25.30;35.80;;;;;;21018;6694;116979;-79
2023/05/25 12:34:42;;;;;;;8.32;6.90;;;25.10;35.80;;;;;;20610;6694;308040;-83
2023/05/25 12:37:21;;;;;;;8.37;7.00;;;25.20;36.10;;;;;;20834;6686;304729;-81
2023/05/25 12:39:58;;;;;;;6.87;5.73;;;25.40;36.00;;;;;;21004;6694;123234;-80
2023/05/25 12:42:33;;;;;;;8.90;6.73;;;25.40;36.10;;;;;;21006;6694;117770;-82
2023/05/25 12:45:09;;;;;;;7.67;6.17;;;25.10;35.90;;;;;;20965;6694;116948;-79
2023/05/25 12:47:45;;;;;;;6.97;6.10;;;24.90;36.20;;;;;;20988;6694;118358;-78
2023/05/25 12:50:20;;;;;;;6.73;5.60;;;24.80;36.40;;;;;;21017;6694;116856;-81
2023/05/25 12:52:59;;;;;;;7.27;6.33;;;24.70;36.70;;;;;;20786;6694;277039;-78
2023/05/25 12:55:35;;;;;;;7.10;6.40;;;25.30;35.70;;;;;;20780;6694;309931;-78
2023/05/25 12:58:11;;;;;;;7.00;6.30;;;25.30;35.70;;;;;;21020;6694;116906;-83
2023/05/25 13:00:46;;;;;;;8.10;7.17;;;25.30;35.70;;;;;;20789;6750;297816;-77
2023/05/25 13:03:22;;;;;;;8.73;6.97;;;25.40;35.40;;;;;;20730;6694;309335;-77
2023/05/25 13:05:58;;;;;;;6.67;6.07;;;25.60;35.80;;;;;;21024;6694;122687;-79
2023/05/25 13:08:34;;;;;;;7.22;6.53;;;25.50;35.30;;;;;;20796;6694;333573;-80
2023/05/25 13:11:11;;;;;;;6.23;5.70;;;25.60;35.20;;;;;;21024;6694;117648;-81
2023/05/25 13:13:48;;;;;;;8.00;6.57;;;25.50;35.10;;;;;;20715;6679;336997;-80
2023/05/25 13:16:29;;;;;;;7.87;6.47;;;25.50;35.40;;;;;;21062;6679;116787;-78
2023/05/25 13:19:05;;;;;;;8.87;5.87;;;25.10;36.30;;;;;;21058;6679;116763;-79
2023/05/25 13:21:39;;;;;;;7.17;6.43;;;25.00;36.20;;;;;;20828;6679;275602;-83